createdAt,value
2016-09-18T00:00:00.628Z,1006.03
2016-09-18T00:01:00.607Z,1005.99
2016-09-18T00:02:00.587Z,1005.99
2016-09-18T00:03:00.566Z,1006.02
2016-09-18T00:04:00.544Z,1006.02
2016-09-18T00:05:00.526Z,1005.99
2016-09-18T00:06:00.504Z,1006
2016-09-18T00:07:00.483Z,1005.98
2016-09-18T00:08:00.462Z,1006.01
2016-09-18T00:09:00.443Z,1006
2016-09-18T00:10:00.424Z,1005.98
2016-09-18T00:11:00.401Z,1005.98
2016-09-18T00:12:00.384Z,1005.98
2016-09-18T00:13:00.360Z,1005.94
2016-09-18T00:14:00.340Z,1005.96
2016-09-18T00:15:00.318Z,1005.95
2016-09-18T00:16:00.298Z,1005.98
2016-09-18T00:17:00.278Z,1005.99
2016-09-18T00:18:00.257Z,1005.97
2016-09-18T00:19:00.238Z,1005.99
2016-09-18T00:20:00.216Z,1006.04
2016-09-18T00:21:00.196Z,1006.04
2016-09-18T00:22:00.174Z,1006.01
2016-09-18T00:23:00.154Z,1006
2016-09-18T00:24:00.134Z,1006.03
2016-09-18T00:25:00.113Z,1006.02
2016-09-18T00:26:00.093Z,1005.99
2016-09-18T00:27:00.074Z,1006
2016-09-18T00:28:00.052Z,1006.01
2016-09-18T00:29:00.030Z,1006.01
2016-09-18T00:30:00.014Z,1006.02
2016-09-18T00:30:59.990Z,1006
2016-09-18T00:31:59.971Z,1006
2016-09-18T00:32:59.948Z,1006.01
2016-09-18T00:33:59.929Z,1005.95
2016-09-18T00:34:59.958Z,1006.01
2016-09-18T00:35:59.887Z,1005.96
2016-09-18T00:36:59.867Z,1005.94
2016-09-18T00:37:59.846Z,1005.96
2016-09-18T00:38:59.825Z,1005.96
2016-09-18T00:39:59.804Z,1005.92
2016-09-18T00:40:59.783Z,1005.92
2016-09-18T00:41:59.764Z,1005.93
2016-09-18T00:42:59.741Z,1005.94
2016-09-18T00:43:59.721Z,1005.9
2016-09-18T00:44:59.699Z,1005.89
2016-09-18T00:45:59.680Z,1005.94
2016-09-18T00:46:59.659Z,1005.91
2016-09-18T00:47:59.637Z,1005.92
2016-09-18T00:48:59.617Z,1005.9
2016-09-18T00:49:59.596Z,1005.9
2016-09-18T00:50:59.574Z,1005.86
2016-09-18T00:51:59.553Z,1005.98
2016-09-18T00:52:59.533Z,1006.01
2016-09-18T00:53:59.512Z,1005.97
2016-09-18T00:54:59.490Z,1005.99
2016-09-18T00:55:59.470Z,1005.94
2016-09-18T00:56:59.449Z,1005.99
2016-09-18T00:57:59.427Z,1005.95
2016-09-18T00:58:59.407Z,1005.95
2016-09-18T00:59:59.387Z,1005.89
2016-09-18T01:00:59.365Z,1005.95
2016-09-18T01:01:59.343Z,1005.96
2016-09-18T01:02:59.329Z,1005.96
2016-09-18T01:03:59.301Z,1005.93
2016-09-18T01:04:59.283Z,1005.95
2016-09-18T01:05:59.259Z,1005.91
2016-09-18T01:06:59.239Z,1005.9
2016-09-18T01:07:59.217Z,1005.91
2016-09-18T01:08:59.195Z,1005.89
2016-09-18T01:09:59.174Z,1005.87
2016-09-18T01:10:59.154Z,1005.92
2016-09-18T01:11:59.132Z,1005.87
2016-09-18T01:12:59.110Z,1005.9
2016-09-18T01:13:59.088Z,1005.88
2016-09-18T01:14:59.069Z,1005.86
2016-09-18T01:15:59.049Z,1005.87
2016-09-18T01:16:59.025Z,1005.88
2016-09-18T01:17:59.005Z,1005.88
2016-09-18T01:18:58.984Z,1005.9
2016-09-18T01:19:58.961Z,1005.88
2016-09-18T01:20:58.940Z,1005.89
2016-09-18T01:21:58.919Z,1005.85
2016-09-18T01:22:58.899Z,1005.89
2016-09-18T01:23:58.876Z,1005.91
2016-09-18T01:24:58.856Z,1005.88
2016-09-18T01:25:58.835Z,1005.92
2016-09-18T01:26:58.814Z,1005.89
2016-09-18T01:27:58.791Z,1005.92
2016-09-18T01:28:58.770Z,1005.89
2016-09-18T01:29:58.749Z,1005.94
2016-09-18T01:30:58.726Z,1005.89
2016-09-18T01:31:58.710Z,1005.92
2016-09-18T01:32:58.685Z,1005.9
2016-09-18T01:33:58.664Z,1005.93
2016-09-18T01:34:58.646Z,1005.92
2016-09-18T01:35:58.620Z,1005.92
2016-09-18T01:36:58.598Z,1005.98
2016-09-18T01:37:58.579Z,1005.99
2016-09-18T01:38:58.556Z,1006
2016-09-18T01:39:58.536Z,1005.98
2016-09-18T01:40:58.515Z,1006.02
2016-09-18T01:41:58.491Z,1006.02
2016-09-18T01:42:58.470Z,1006.01
2016-09-18T01:43:58.450Z,1006.05
2016-09-18T01:44:58.429Z,1006.01
2016-09-18T01:45:58.407Z,1005.99
2016-09-18T01:46:58.385Z,1006.06
2016-09-18T01:47:58.364Z,1006.04
2016-09-18T01:48:58.341Z,1006.02
2016-09-18T01:49:58.321Z,1005.99
2016-09-18T01:50:58.299Z,1006.01
2016-09-18T01:51:58.278Z,1005.94
2016-09-18T01:52:58.256Z,1005.92
2016-09-18T01:53:58.236Z,1005.93
2016-09-18T01:54:58.213Z,1005.92
2016-09-18T01:55:58.192Z,1005.96
2016-09-18T01:56:58.171Z,1005.95
2016-09-18T01:57:58.149Z,1005.94
2016-09-18T01:58:58.127Z,1005.95
2016-09-18T01:59:58.107Z,1005.98
2016-09-18T02:00:58.085Z,1005.99
2016-09-18T02:01:58.063Z,1005.91
2016-09-18T02:02:58.041Z,1005.93
2016-09-18T02:03:58.020Z,1005.97
2016-09-18T02:04:57.999Z,1005.92
2016-09-18T02:05:57.978Z,1005.93
2016-09-18T02:06:57.955Z,1005.9
2016-09-18T02:07:57.934Z,1005.92
2016-09-18T02:08:57.912Z,1005.93
2016-09-18T02:09:57.890Z,1005.95
2016-09-18T02:10:57.868Z,1005.91
2016-09-18T02:11:57.847Z,1005.91
2016-09-18T02:12:57.827Z,1005.93
2016-09-18T02:13:57.805Z,1005.88
2016-09-18T02:14:57.782Z,1005.87
2016-09-18T02:15:57.761Z,1005.93
2016-09-18T02:16:57.740Z,1005.88
2016-09-18T02:17:57.719Z,1005.9
2016-09-18T02:18:57.696Z,1005.9
2016-09-18T02:19:57.675Z,1005.85
2016-09-18T02:20:57.655Z,1005.84
2016-09-18T02:21:57.630Z,1005.85
2016-09-18T02:22:57.610Z,1005.84
2016-09-18T02:23:57.589Z,1005.87
2016-09-18T02:24:57.568Z,1005.8
2016-09-18T02:25:57.545Z,1005.83
2016-09-18T02:26:57.522Z,1005.84
2016-09-18T02:27:57.502Z,1005.83
2016-09-18T02:28:57.481Z,1005.83
2016-09-18T02:29:57.459Z,1005.85
2016-09-18T02:30:57.437Z,1005.78
2016-09-18T02:31:57.416Z,1005.83
2016-09-18T02:32:57.394Z,1005.83
2016-09-18T02:33:57.371Z,1005.84
2016-09-18T02:34:57.352Z,1005.83
2016-09-18T02:35:57.328Z,1005.87
2016-09-18T02:36:57.307Z,1005.87
2016-09-18T02:37:57.287Z,1005.89
2016-09-18T02:38:57.263Z,1005.94
2016-09-18T02:39:57.243Z,1005.88
2016-09-18T02:40:57.233Z,1005.9
2016-09-18T02:41:57.198Z,1005.88
2016-09-18T02:42:57.178Z,1005.94
2016-09-18T02:43:57.155Z,1005.89
2016-09-18T02:44:57.134Z,1005.9
2016-09-18T02:45:57.112Z,1005.88
2016-09-18T02:46:57.092Z,1005.87
2016-09-18T02:47:57.068Z,1005.91
2016-09-18T02:48:57.047Z,1005.9
2016-09-18T02:49:57.026Z,1005.89
2016-09-18T02:50:57.004Z,1005.89
2016-09-18T02:51:56.981Z,1005.86
2016-09-18T02:52:56.960Z,1005.86
2016-09-18T02:53:56.938Z,1005.91
2016-09-18T02:54:56.917Z,1005.91
2016-09-18T02:55:56.894Z,1005.85
2016-09-18T02:56:56.873Z,1005.9
2016-09-18T02:57:56.852Z,1005.9
2016-09-18T02:58:56.831Z,1005.89
2016-09-18T02:59:56.808Z,1005.87
2016-09-18T03:00:56.787Z,1005.91
2016-09-18T03:01:56.764Z,1005.94
2016-09-18T03:02:56.744Z,1006.01
2016-09-18T03:03:56.722Z,1005.96
2016-09-18T03:04:56.699Z,1005.92
2016-09-18T03:05:56.683Z,1005.9
2016-09-18T03:06:56.657Z,1005.9
2016-09-18T03:07:56.635Z,1005.88
2016-09-18T03:08:56.617Z,1005.87
2016-09-18T03:09:56.595Z,1005.88
2016-09-18T03:10:56.574Z,1005.85
2016-09-18T03:11:56.547Z,1005.83
2016-09-18T03:12:56.525Z,1005.85
2016-09-18T03:13:56.509Z,1005.83
2016-09-18T03:14:56.481Z,1005.8
2016-09-18T03:15:56.465Z,1005.79
2016-09-18T03:16:56.437Z,1005.8
2016-09-18T03:17:56.421Z,1005.79
2016-09-18T03:18:56.400Z,1005.77
2016-09-18T03:19:56.379Z,1005.78
2016-09-18T03:20:56.356Z,1005.74
2016-09-18T03:21:56.331Z,1005.69
2016-09-18T03:22:56.313Z,1005.67
2016-09-18T03:23:56.292Z,1005.7
2016-09-18T03:24:56.264Z,1005.63
2016-09-18T03:25:56.247Z,1005.69
2016-09-18T03:26:56.225Z,1005.69
2016-09-18T03:27:56.198Z,1005.65
2016-09-18T03:28:56.181Z,1005.66
2016-09-18T03:29:56.154Z,1005.65
2016-09-18T03:30:56.133Z,1005.75
2016-09-18T03:31:56.110Z,1005.67
2016-09-18T03:32:56.092Z,1005.68
2016-09-18T03:33:56.067Z,1005.61
2016-09-18T03:34:56.046Z,1005.61
2016-09-18T03:35:56.031Z,1005.64
2016-09-18T03:36:56.008Z,1005.61
2016-09-18T03:37:55.987Z,1005.62
2016-09-18T03:38:55.958Z,1005.57
2016-09-18T03:39:55.937Z,1005.62
2016-09-18T03:40:55.915Z,1005.63
2016-09-18T03:41:55.892Z,1005.62
2016-09-18T03:42:55.872Z,1005.64
2016-09-18T03:43:55.850Z,1005.66
2016-09-18T03:44:55.827Z,1005.68
2016-09-18T03:45:55.807Z,1005.68
2016-09-18T03:46:55.784Z,1005.7
2016-09-18T03:47:55.762Z,1005.7
2016-09-18T03:48:55.742Z,1005.63
2016-09-18T03:49:55.720Z,1005.69
2016-09-18T03:50:55.696Z,1005.7
2016-09-18T03:51:55.679Z,1005.67
2016-09-18T03:52:55.652Z,1005.68
2016-09-18T03:53:55.630Z,1005.65
2016-09-18T03:54:55.609Z,1005.63
2016-09-18T03:55:55.587Z,1005.68
2016-09-18T03:56:55.564Z,1005.63
2016-09-18T03:57:55.542Z,1005.67
2016-09-18T03:58:55.521Z,1005.59
2016-09-18T03:59:55.499Z,1005.62
2016-09-18T04:00:55.475Z,1005.6
2016-09-18T04:01:55.454Z,1005.6
2016-09-18T04:02:55.433Z,1005.55
2016-09-18T04:03:55.412Z,1005.57
2016-09-18T04:04:55.387Z,1005.57
2016-09-18T04:05:55.366Z,1005.57
2016-09-18T04:06:55.344Z,1005.64
2016-09-18T04:07:55.321Z,1005.54
2016-09-18T04:08:55.300Z,1005.57
2016-09-18T04:09:55.279Z,1005.58
2016-09-18T04:10:55.256Z,1005.55
2016-09-18T04:11:55.235Z,1005.55
2016-09-18T04:12:55.213Z,1005.56
2016-09-18T04:13:55.190Z,1005.58
2016-09-18T04:14:55.167Z,1005.52
2016-09-18T04:15:55.147Z,1005.55
2016-09-18T04:16:55.124Z,1005.5
2016-09-18T04:17:55.101Z,1005.51
2016-09-18T04:18:55.081Z,1005.55
2016-09-18T04:19:55.059Z,1005.5
2016-09-18T04:20:55.036Z,1005.49
2016-09-18T04:21:55.014Z,1005.5
2016-09-18T04:22:54.992Z,1005.5
2016-09-18T04:23:54.970Z,1005.61
2016-09-18T04:24:54.950Z,1005.53
2016-09-18T04:25:54.926Z,1005.55
2016-09-18T04:26:54.904Z,1005.5
2016-09-18T04:27:54.884Z,1005.54
2016-09-18T04:28:54.861Z,1005.44
2016-09-18T04:29:54.840Z,1005.54
2016-09-18T04:30:54.819Z,1005.48
2016-09-18T04:31:54.797Z,1005.54
2016-09-18T04:32:54.774Z,1005.51
2016-09-18T04:33:54.751Z,1005.53
2016-09-18T04:34:54.730Z,1005.56
2016-09-18T04:35:54.709Z,1005.57
2016-09-18T04:36:54.691Z,1005.59
2016-09-18T04:37:54.664Z,1005.59
2016-09-18T04:38:54.643Z,1005.58
2016-09-18T04:39:54.622Z,1005.61
2016-09-18T04:40:54.598Z,1005.6
2016-09-18T04:41:54.578Z,1005.56
2016-09-18T04:42:54.556Z,1005.59
2016-09-18T04:43:54.533Z,1005.58
2016-09-18T04:44:54.512Z,1005.62
2016-09-18T04:45:54.490Z,1005.64
2016-09-18T04:46:54.468Z,1005.66
2016-09-18T04:47:54.446Z,1005.61
2016-09-18T04:48:54.423Z,1005.67
2016-09-18T04:49:54.401Z,1005.65
2016-09-18T04:50:54.381Z,1005.63
2016-09-18T04:51:54.357Z,1005.69
2016-09-18T04:52:54.335Z,1005.68
2016-09-18T04:53:54.315Z,1005.68
2016-09-18T04:54:54.293Z,1005.76
2016-09-18T04:55:54.270Z,1005.7
2016-09-18T04:56:54.248Z,1005.66
2016-09-18T04:57:54.227Z,1005.69
2016-09-18T04:58:54.205Z,1005.66
2016-09-18T04:59:54.182Z,1005.62
2016-09-18T05:00:54.161Z,1005.64
2016-09-18T05:01:54.139Z,1005.65
2016-09-18T05:02:54.119Z,1005.65
2016-09-18T05:03:54.095Z,1005.67
2016-09-18T05:04:54.077Z,1005.59
2016-09-18T05:05:54.051Z,1005.66
2016-09-18T05:06:54.029Z,1005.64
2016-09-18T05:07:54.007Z,1005.73
2016-09-18T05:08:53.984Z,1005.7
2016-09-18T05:09:53.963Z,1005.73
2016-09-18T05:10:53.943Z,1005.73
2016-09-18T05:11:53.920Z,1005.72
2016-09-18T05:12:53.900Z,1005.74
2016-09-18T05:13:53.877Z,1005.73
2016-09-18T05:14:53.856Z,1005.7
2016-09-18T05:15:53.834Z,1005.74
2016-09-18T05:16:53.812Z,1005.76
2016-09-18T05:17:53.790Z,1005.74
2016-09-18T05:18:53.767Z,1005.74
2016-09-18T05:19:53.747Z,1005.75
2016-09-18T05:20:53.722Z,1005.74
2016-09-18T05:21:53.702Z,1005.72
2016-09-18T05:22:53.679Z,1005.73
2016-09-18T05:23:53.659Z,1005.72
2016-09-18T05:24:53.635Z,1005.68
2016-09-18T05:25:53.614Z,1005.72
2016-09-18T05:26:53.593Z,1005.75
2016-09-18T05:27:53.571Z,1005.8
2016-09-18T05:28:53.553Z,1005.77
2016-09-18T05:29:53.526Z,1005.75
2016-09-18T05:30:53.504Z,1005.79
2016-09-18T05:31:53.484Z,1005.8
2016-09-18T05:32:53.461Z,1005.81
2016-09-18T05:33:53.439Z,1005.74
2016-09-18T05:34:53.420Z,1005.77
2016-09-18T05:35:53.401Z,1005.78
2016-09-18T05:36:53.375Z,1005.78
2016-09-18T05:37:53.352Z,1005.78
2016-09-18T05:38:53.331Z,1005.79
2016-09-18T05:39:53.309Z,1005.82
2016-09-18T05:40:53.287Z,1005.83
2016-09-18T05:41:53.267Z,1005.8
2016-09-18T05:42:53.243Z,1005.78
2016-09-18T05:43:53.223Z,1005.81
2016-09-18T05:44:53.200Z,1005.84
2016-09-18T05:45:53.179Z,1005.85
2016-09-18T05:46:53.156Z,1005.85
2016-09-18T05:47:53.135Z,1005.85
2016-09-18T05:48:53.113Z,1005.81
2016-09-18T05:49:53.091Z,1005.83
2016-09-18T05:50:53.071Z,1005.83
2016-09-18T05:51:53.047Z,1005.78
2016-09-18T05:52:53.027Z,1005.78
2016-09-18T05:53:53.004Z,1005.86
2016-09-18T05:54:52.981Z,1005.87
2016-09-18T05:55:52.961Z,1005.82
2016-09-18T05:56:52.939Z,1005.84
2016-09-18T05:57:52.916Z,1005.87
2016-09-18T05:58:52.894Z,1005.85
2016-09-18T05:59:52.873Z,1005.85
2016-09-18T06:00:52.851Z,1005.87
2016-09-18T06:01:52.829Z,1005.83
2016-09-18T06:02:52.808Z,1005.87
2016-09-18T06:03:52.787Z,1005.8
2016-09-18T06:04:52.765Z,1005.91
2016-09-18T06:05:52.743Z,1005.79
2016-09-18T06:06:52.722Z,1005.84
2016-09-18T06:07:52.699Z,1005.85
2016-09-18T06:08:52.677Z,1005.8
2016-09-18T06:09:52.654Z,1005.8
2016-09-18T06:10:52.633Z,1005.86
2016-09-18T06:11:52.613Z,1005.85
2016-09-18T06:12:52.589Z,1005.85
2016-09-18T06:13:52.568Z,1005.84
2016-09-18T06:14:52.547Z,1005.83
2016-09-18T06:15:52.524Z,1005.87
2016-09-18T06:16:52.503Z,1005.86
2016-09-18T06:17:52.480Z,1005.8
2016-09-18T06:18:52.460Z,1005.83
2016-09-18T06:19:52.438Z,1005.85
2016-09-18T06:20:52.416Z,1005.82
2016-09-18T06:21:52.395Z,1005.81
2016-09-18T06:22:52.372Z,1005.83
2016-09-18T06:23:52.352Z,1005.78
2016-09-18T06:24:52.329Z,1005.81
2016-09-18T06:25:52.307Z,1005.81
2016-09-18T06:26:52.290Z,1005.79
2016-09-18T06:27:52.264Z,1005.8
2016-09-18T06:28:52.242Z,1005.82
2016-09-18T06:29:52.221Z,1005.75
2016-09-18T06:30:52.200Z,1005.78
2016-09-18T06:31:52.177Z,1005.76
2016-09-18T06:32:52.155Z,1005.81
2016-09-18T06:33:52.133Z,1005.72
2016-09-18T06:34:52.112Z,1005.77
2016-09-18T06:35:52.090Z,1005.75
2016-09-18T06:36:52.070Z,1005.81
2016-09-18T06:37:52.046Z,1005.77
2016-09-18T06:38:52.025Z,1005.81
2016-09-18T06:39:52.005Z,1005.8
2016-09-18T06:40:51.982Z,1005.81
2016-09-18T06:41:51.960Z,1005.77
2016-09-18T06:42:51.938Z,1005.85
2016-09-18T06:43:51.918Z,1005.78
2016-09-18T06:44:51.896Z,1005.82
2016-09-18T06:45:51.874Z,1005.8
2016-09-18T06:46:51.853Z,1005.8
2016-09-18T06:47:51.833Z,1005.81
2016-09-18T06:48:51.810Z,1005.83
2016-09-18T06:49:51.789Z,1005.79
2016-09-18T06:50:51.768Z,1005.79
2016-09-18T06:51:51.747Z,1005.81
2016-09-18T06:52:51.724Z,1005.83
2016-09-18T06:53:51.704Z,1005.8
2016-09-18T06:54:51.686Z,1005.79
2016-09-18T06:55:51.661Z,1005.85
2016-09-18T06:56:51.638Z,1005.82
2016-09-18T06:57:51.618Z,1005.85
2016-09-18T06:58:51.598Z,1005.86
2016-09-18T06:59:51.575Z,1005.83
2016-09-18T07:00:51.554Z,1005.75
2016-09-18T07:01:51.533Z,1005.84
2016-09-18T07:02:51.514Z,1005.88
2016-09-18T07:03:51.491Z,1005.9
2016-09-18T07:04:51.469Z,1005.89
2016-09-18T07:05:51.448Z,1005.86
2016-09-18T07:06:51.427Z,1005.87
2016-09-18T07:07:51.406Z,1005.84
2016-09-18T07:08:51.386Z,1005.85
2016-09-18T07:09:51.363Z,1005.84
2016-09-18T07:10:51.341Z,1005.85
2016-09-18T07:11:51.321Z,1005.86
2016-09-18T07:12:51.301Z,1005.86
2016-09-18T07:13:51.278Z,1005.86
2016-09-18T07:14:51.262Z,1005.8
2016-09-18T07:15:51.238Z,1005.78
2016-09-18T07:16:51.215Z,1005.81
2016-09-18T07:17:51.193Z,1005.8
2016-09-18T07:18:51.172Z,1005.85
2016-09-18T07:19:51.152Z,1005.8
2016-09-18T07:20:51.130Z,1005.79
2016-09-18T07:21:51.110Z,1005.82
2016-09-18T07:22:51.088Z,1005.8
2016-09-18T07:23:51.365Z,1005.76
2016-09-18T07:24:51.046Z,1005.75
2016-09-18T07:25:51.024Z,1005.77
2016-09-18T07:26:51.003Z,1005.81
2016-09-18T07:27:50.980Z,1005.8
2016-09-18T07:28:50.960Z,1005.79
2016-09-18T07:29:50.939Z,1005.85
2016-09-18T07:30:50.917Z,1005.82
2016-09-18T07:31:50.896Z,1005.85
2016-09-18T07:32:50.874Z,1005.84
2016-09-18T07:33:50.853Z,1005.85
2016-09-18T07:34:50.831Z,1005.82
2016-09-18T07:35:50.812Z,1005.83
2016-09-18T07:36:50.788Z,1005.83
2016-09-18T07:37:50.772Z,1005.85
2016-09-18T07:38:50.747Z,1005.88
2016-09-18T07:39:50.725Z,1005.87
2016-09-18T07:40:50.703Z,1005.83
2016-09-18T07:41:50.682Z,1005.86
2016-09-18T07:42:50.662Z,1005.84
2016-09-18T07:43:50.644Z,1005.85
2016-09-18T07:44:50.618Z,1005.86
2016-09-18T07:45:50.598Z,1005.88
2016-09-18T07:46:50.577Z,1005.89
2016-09-18T07:47:50.554Z,1005.91
2016-09-18T07:48:50.534Z,1005.88
2016-09-18T07:49:50.513Z,1005.89
2016-09-18T07:50:50.490Z,1005.93
2016-09-18T07:51:50.470Z,1005.92
2016-09-18T07:52:50.449Z,1005.87
2016-09-18T07:53:50.427Z,1005.93
2016-09-18T07:54:50.404Z,1005.91
2016-09-18T07:55:50.384Z,1005.9
2016-09-18T07:56:50.362Z,1005.93
2016-09-18T07:57:50.342Z,1005.92
2016-09-18T07:58:50.320Z,1005.92
2016-09-18T07:59:50.298Z,1005.98
2016-09-18T08:00:50.278Z,1005.94
2016-09-18T08:01:50.255Z,1005.88
2016-09-18T08:02:50.233Z,1005.88
2016-09-18T08:03:50.212Z,1005.88
2016-09-18T08:04:50.191Z,1005.88
2016-09-18T08:05:50.169Z,1005.9
2016-09-18T08:06:50.148Z,1005.91
2016-09-18T08:07:50.127Z,1005.91
2016-09-18T08:08:50.107Z,1005.96
2016-09-18T08:09:50.084Z,1005.93
2016-09-18T08:10:50.063Z,1005.96
2016-09-18T08:11:50.042Z,1005.97
2016-09-18T08:12:50.020Z,1005.93
2016-09-18T08:13:50.001Z,1006
2016-09-18T08:14:49.981Z,1005.99
2016-09-18T08:15:49.959Z,1006
2016-09-18T08:16:49.937Z,1006
2016-09-18T08:17:49.925Z,1005.98
2016-09-18T08:18:49.903Z,1006.04
2016-09-18T08:19:49.875Z,1005.97
2016-09-18T08:20:49.855Z,1006.07
2016-09-18T08:21:49.834Z,1006
2016-09-18T08:22:49.814Z,1006.04
2016-09-18T08:23:49.799Z,1006.04
2016-09-18T08:24:49.772Z,1006
2016-09-18T08:25:49.752Z,1005.99
2016-09-18T08:26:49.731Z,1006.04
2016-09-18T08:27:49.723Z,1006.05
2016-09-18T08:28:49.704Z,1006.06
2016-09-18T08:29:49.670Z,1006.09
2016-09-18T08:30:49.648Z,1006.07
2016-09-18T08:31:49.629Z,1006.11
2016-09-18T08:32:49.608Z,1006.1
2016-09-18T08:33:49.589Z,1006.13
2016-09-18T08:34:49.569Z,1006.13
2016-09-18T08:35:49.547Z,1006.12
2016-09-18T08:36:49.528Z,1006.1
2016-09-18T08:37:49.508Z,1006.13
2016-09-18T08:38:49.487Z,1006.15
2016-09-18T08:39:49.465Z,1006.2
2016-09-18T08:40:49.447Z,1006.09
2016-09-18T08:41:49.424Z,1006.14
2016-09-18T08:42:49.405Z,1006.12
2016-09-18T08:43:49.385Z,1006.17
2016-09-18T08:44:49.364Z,1006.16
2016-09-18T08:45:49.344Z,1006.21
2016-09-18T08:46:49.324Z,1006.2
2016-09-18T08:47:49.303Z,1006.18
2016-09-18T08:48:49.283Z,1006.18
2016-09-18T08:49:49.262Z,1006.21
2016-09-18T08:50:49.242Z,1006.17
2016-09-18T08:51:49.223Z,1006.19
2016-09-18T08:52:49.202Z,1006.16
2016-09-18T08:53:49.182Z,1006.23
2016-09-18T08:54:49.163Z,1006.21
2016-09-18T08:55:49.142Z,1006.21
2016-09-18T08:56:49.120Z,1006.2
2016-09-18T08:57:49.101Z,1006.23
2016-09-18T08:58:49.081Z,1006.23
2016-09-18T08:59:49.062Z,1006.23
2016-09-18T09:00:49.042Z,1006.19
2016-09-18T09:01:49.022Z,1006.21
2016-09-18T09:02:49.002Z,1006.2
2016-09-18T09:03:48.980Z,1006.22
2016-09-18T09:04:48.961Z,1006.2
2016-09-18T09:05:48.941Z,1006.23
2016-09-18T09:06:48.921Z,1006.21
2016-09-18T09:07:48.900Z,1006.19
2016-09-18T09:08:48.882Z,1006.23
2016-09-18T09:09:48.861Z,1006.23
2016-09-18T09:10:48.841Z,1006.26
2016-09-18T09:11:48.822Z,1006.22
2016-09-18T09:12:48.801Z,1006.19
2016-09-18T09:13:48.782Z,1006.19
2016-09-18T09:14:48.761Z,1006.12
2016-09-18T09:15:48.742Z,1006.17
2016-09-18T09:16:48.721Z,1006.17
2016-09-18T09:17:48.703Z,1006.16
2016-09-18T09:18:48.689Z,1006.16
2016-09-18T09:19:48.662Z,1006.13
2016-09-18T09:20:48.646Z,1006.22
2016-09-18T09:21:48.624Z,1006.13
2016-09-18T09:22:48.602Z,1006.13
2016-09-18T09:23:48.584Z,1006.14
2016-09-18T09:24:48.565Z,1006.1
2016-09-18T09:25:48.544Z,1006.11
2016-09-18T09:26:48.524Z,1006.1
2016-09-18T09:27:48.506Z,1006.14
2016-09-18T09:28:48.486Z,1006.12
2016-09-18T09:29:48.466Z,1006.09
2016-09-18T09:30:48.448Z,1006.07
2016-09-18T09:31:48.428Z,1006.11
2016-09-18T09:32:48.410Z,1006.13
2016-09-18T09:33:48.389Z,1006.1
2016-09-18T09:34:48.371Z,1006.08
2016-09-18T09:35:48.354Z,1006.04
2016-09-18T09:36:48.333Z,1006.08
2016-09-18T09:37:48.315Z,1006.1
2016-09-18T09:38:48.297Z,1006.02
2016-09-18T09:39:48.278Z,1006.01
2016-09-18T09:40:48.260Z,1006.07
2016-09-18T09:41:48.243Z,1006.03
2016-09-18T09:42:48.225Z,1006.02
2016-09-18T09:43:48.208Z,1006
2016-09-18T09:44:48.188Z,1006.01
2016-09-18T09:45:48.171Z,1006.01
2016-09-18T09:46:48.154Z,1006.02
2016-09-18T09:47:48.135Z,1006.02
2016-09-18T09:48:48.118Z,1006.05
2016-09-18T09:49:48.101Z,1006.01
2016-09-18T09:50:48.084Z,1006.01
2016-09-18T09:51:48.066Z,1006.01
2016-09-18T09:52:48.050Z,1006.06
2016-09-18T09:53:48.033Z,1006.04
2016-09-18T09:54:48.016Z,1006.07
2016-09-18T09:55:47.999Z,1006.13
2016-09-18T09:56:47.983Z,1006.08
2016-09-18T09:57:47.966Z,1006.01
2016-09-18T09:58:47.949Z,1006.04
2016-09-18T09:59:47.933Z,1006.07
2016-09-18T10:00:47.915Z,1006.06
2016-09-18T10:01:47.898Z,1006.06
2016-09-18T10:02:47.881Z,1006.05
2016-09-18T10:03:47.865Z,1006.02
2016-09-18T10:04:47.848Z,1005.98
2016-09-18T10:05:47.830Z,1006.01
2016-09-18T10:06:47.813Z,1005.99
2016-09-18T10:07:47.795Z,1005.98
2016-09-18T10:08:47.780Z,1005.98
2016-09-18T10:09:47.762Z,1006.01
2016-09-18T10:10:47.746Z,1006
2016-09-18T10:11:47.730Z,1006.02
2016-09-18T10:12:47.714Z,1006.03
2016-09-18T10:13:47.695Z,1006.02
2016-09-18T10:14:47.681Z,1006
2016-09-18T10:15:47.664Z,1005.99
2016-09-18T10:16:47.647Z,1006.01
2016-09-18T10:17:47.630Z,1005.97
2016-09-18T10:18:47.613Z,1005.98
2016-09-18T10:19:47.597Z,1006
2016-09-18T10:20:47.581Z,1005.97
2016-09-18T10:21:47.565Z,1005.95
2016-09-18T10:22:47.548Z,1006.03
2016-09-18T10:23:47.533Z,1006.03
2016-09-18T10:24:47.516Z,1006.08
2016-09-18T10:25:47.504Z,1006.05
2016-09-18T10:26:47.482Z,1006.01
2016-09-18T10:27:47.466Z,1006.02
2016-09-18T10:28:47.449Z,1005.98
2016-09-18T10:29:47.433Z,1006
2016-09-18T10:30:47.417Z,1005.98
2016-09-18T10:31:47.399Z,1005.98
2016-09-18T10:32:47.384Z,1006
2016-09-18T10:33:47.366Z,1005.97
2016-09-18T10:34:47.351Z,1005.99
2016-09-18T10:35:47.332Z,1006.08
2016-09-18T10:36:47.317Z,1006.05
2016-09-18T10:37:47.299Z,1006.05
2016-09-18T10:38:47.283Z,1005.98
2016-09-18T10:39:47.265Z,1006.03
2016-09-18T10:40:47.248Z,1006.03
2016-09-18T10:41:47.233Z,1006.01
2016-09-18T10:42:47.214Z,1006.03
2016-09-18T10:43:47.196Z,1005.99
2016-09-18T10:44:47.180Z,1006.01
2016-09-18T10:45:47.162Z,1006.07
2016-09-18T10:46:47.145Z,1005.99
2016-09-18T10:47:47.128Z,1005.99
2016-09-18T10:48:47.111Z,1005.96
2016-09-18T10:49:47.093Z,1006.04
2016-09-18T10:50:47.077Z,1005.97
2016-09-18T10:51:47.059Z,1005.98
2016-09-18T10:52:47.043Z,1005.96
2016-09-18T10:53:47.025Z,1006
2016-09-18T10:54:47.007Z,1005.91
2016-09-18T10:55:46.992Z,1005.89
2016-09-18T10:56:46.974Z,1005.91
2016-09-18T10:57:46.957Z,1005.91
2016-09-18T10:58:46.941Z,1005.92
2016-09-18T10:59:46.925Z,1005.91
2016-09-18T11:00:46.908Z,1005.93
2016-09-18T11:01:46.896Z,1005.92
2016-09-18T11:02:46.876Z,1005.9
2016-09-18T11:03:46.860Z,1005.88
2016-09-18T11:04:46.844Z,1005.92
2016-09-18T11:05:46.829Z,1005.96
2016-09-18T11:06:46.811Z,1005.94
2016-09-18T11:07:46.797Z,1005.91
2016-09-18T11:08:46.779Z,1005.91
2016-09-18T11:09:46.763Z,1005.89
2016-09-18T11:10:46.748Z,1005.9
2016-09-18T11:11:46.730Z,1005.87
2016-09-18T11:12:46.715Z,1005.85
2016-09-18T11:13:46.704Z,1005.86
2016-09-18T11:14:46.683Z,1005.85
2016-09-18T11:15:46.664Z,1005.86
2016-09-18T11:16:46.648Z,1005.88
2016-09-18T11:17:46.631Z,1005.83
2016-09-18T11:18:46.616Z,1005.88
2016-09-18T11:19:46.598Z,1005.88
2016-09-18T11:20:46.583Z,1005.84
2016-09-18T11:21:46.566Z,1005.83
2016-09-18T11:22:46.549Z,1005.84
2016-09-18T11:23:46.534Z,1005.85
2016-09-18T11:24:46.517Z,1005.84
2016-09-18T11:25:46.501Z,1005.86
2016-09-18T11:26:46.484Z,1005.82
2016-09-18T11:27:46.469Z,1005.8
2016-09-18T11:28:46.453Z,1005.8
2016-09-18T11:29:46.437Z,1005.8
2016-09-18T11:30:46.421Z,1005.78
2016-09-18T11:31:46.405Z,1005.78
2016-09-18T11:32:46.389Z,1005.8
2016-09-18T11:33:46.372Z,1005.75
2016-09-18T11:34:46.356Z,1005.73
2016-09-18T11:35:46.341Z,1005.73
2016-09-18T11:36:46.324Z,1005.67
2016-09-18T11:37:46.309Z,1005.73
2016-09-18T11:38:46.294Z,1005.66
2016-09-18T11:39:46.277Z,1005.7
2016-09-18T11:40:46.262Z,1005.72
2016-09-18T11:41:46.246Z,1005.69
2016-09-18T11:42:46.233Z,1005.72
2016-09-18T11:43:46.216Z,1005.69
2016-09-18T11:44:46.199Z,1005.71
2016-09-18T11:45:46.184Z,1005.75
2016-09-18T11:46:46.168Z,1005.71
2016-09-18T11:47:46.155Z,1005.71
2016-09-18T11:48:46.137Z,1005.73
2016-09-18T11:49:46.121Z,1005.66
2016-09-18T11:50:46.107Z,1005.75
2016-09-18T11:51:46.091Z,1005.77
2016-09-18T11:52:46.073Z,1005.82
2016-09-18T11:53:46.059Z,1005.76
2016-09-18T11:54:46.042Z,1005.81
2016-09-18T11:55:46.026Z,1005.74
2016-09-18T11:56:46.010Z,1005.87
2016-09-18T11:57:45.994Z,1005.81
2016-09-18T11:58:45.977Z,1005.81
2016-09-18T11:59:45.960Z,1005.81
2016-09-18T12:00:45.944Z,1005.82
2016-09-18T12:01:45.927Z,1005.82
2016-09-18T12:02:45.909Z,1005.8
2016-09-18T12:03:45.894Z,1005.81
2016-09-18T12:04:45.877Z,1005.8
2016-09-18T12:05:45.860Z,1005.78
2016-09-18T12:06:45.844Z,1005.81
2016-09-18T12:07:45.826Z,1005.75
2016-09-18T12:08:45.811Z,1005.75